TAF KINT
KINT 090520Z 0906/1006 VRB03KT P6SM SKC FM091400 VRB05KT P6SM BKN250=
METAR KINT
WC KINT
WS KINT
WV KINT